GLO8001 SBCY-SBCF
Flight info
| Callsign | GLO8001 |
|---|---|
| Flight time | 1h 45m |
| Altitude | 39000 |
| Route | TORAB UZ8 VULAD |
| Aircraft | B738/M-V/N |
Departure
| Time | 2026-04-28 21:08 |
|---|---|
| Airport | Várzea Grande–Marechal Rondon International Airport (SBCY) |
Arrival
| Time | 2026-04-28 22:53 |
|---|---|
| Airport | Tancredo Neves International Airport (SBCF) |
| Time | Latitude | Longitude | Altitude | Speed | Heading |
|---|---|---|---|---|---|
| 2026-04-28 20:55 | -15.64951 | -56.12029 | 606 ft | 0 kts | 241° |
| 2026-04-28 20:57 | -15.64944 | -56.12014 | 613 ft | 3 kts | 241° |
| 2026-04-28 20:57 | -15.64933 | -56.11998 | 614 ft | 3 kts | 203° |
| 2026-04-28 20:57 | -15.64917 | -56.11997 | 612 ft | 1 kts | 149° |
| 2026-04-28 20:57 | -15.64916 | -56.11997 | 612 ft | 0 kts | 149° |
| 2026-04-28 21:01 | -15.64917 | -56.11997 | 606 ft | 1 kts | 149° |
| 2026-04-28 21:01 | -15.64936 | -56.11987 | 611 ft | 6 kts | 152° |
| 2026-04-28 21:02 | -15.64988 | -56.11961 | 612 ft | 9 kts | 157° |
| 2026-04-28 21:02 | -15.65046 | -56.11935 | 619 ft | 9 kts | 154° |
| 2026-04-28 21:02 | -15.65080 | -56.11886 | 603 ft | 9 kts | 87° |
| 2026-04-28 21:02 | -15.65051 | -56.11831 | 613 ft | 9 kts | 38° |
| 2026-04-28 21:03 | -15.64993 | -56.11833 | 618 ft | 9 kts | 339° |
| 2026-04-28 21:03 | -15.64941 | -56.11860 | 604 ft | 8 kts | 330° |
| 2026-04-28 21:03 | -15.64890 | -56.11888 | 610 ft | 8 kts | 333° |
| 2026-04-28 21:03 | -15.64840 | -56.11914 | 612 ft | 8 kts | 332° |
| 2026-04-28 21:04 | -15.64792 | -56.11939 | 616 ft | 8 kts | 333° |
| 2026-04-28 21:04 | -15.64744 | -56.11965 | 610 ft | 8 kts | 332° |
| 2026-04-28 21:04 | -15.64685 | -56.11999 | 615 ft | 11 kts | 330° |
| 2026-04-28 21:04 | -15.64607 | -56.12029 | 622 ft | 13 kts | 343° |
| 2026-04-28 21:05 | -15.64519 | -56.12075 | 611 ft | 15 kts | 332° |
| 2026-04-28 21:05 | -15.64430 | -56.12118 | 620 ft | 14 kts | 336° |
| 2026-04-28 21:05 | -15.64396 | -56.12149 | 619 ft | 4 kts | 217° |
| 2026-04-28 21:05 | -15.64418 | -56.12137 | 623 ft | 5 kts | 145° |
| 2026-04-28 21:06 | -15.64424 | -56.12133 | 616 ft | 1 kts | 149° |
| 2026-04-28 21:06 | -15.64430 | -56.12129 | 617 ft | 1 kts | 149° |
| 2026-04-28 21:06 | -15.64431 | -56.12129 | 617 ft | 0 kts | 149° |
| 2026-04-28 21:06 | -15.64433 | -56.12128 | 616 ft | 1 kts | 149° |
| 2026-04-28 21:07 | -15.64436 | -56.12126 | 613 ft | 0 kts | 150° |
| 2026-04-28 21:07 | -15.64498 | -56.12092 | 611 ft | 43 kts | 153° |
| 2026-04-28 21:07 | -15.65046 | -56.11801 | 618 ft | 130 kts | 153° |
| 2026-04-28 21:08 | -15.66043 | -56.11279 | 866 ft | 183 kts | 153° |
| 2026-04-28 21:08 | -15.67308 | -56.10631 | 1346 ft | 222 kts | 153° |
| 2026-04-28 21:08 | -15.68562 | -56.09603 | 1823 ft | 248 kts | 124° |
| 2026-04-28 21:08 | -15.69268 | -56.07904 | 2373 ft | 263 kts | 103° |
| 2026-04-28 21:09 | -15.69390 | -56.05996 | 2831 ft | 268 kts | 82° |
| 2026-04-28 21:09 | -15.68997 | -56.04099 | 3304 ft | 268 kts | 75° |
| 2026-04-28 21:09 | -15.68507 | -56.02231 | 3791 ft | 268 kts | 74° |
| 2026-04-28 21:09 | -15.68019 | -56.00355 | 4278 ft | 270 kts | 74° |
| 2026-04-28 21:10 | -15.67538 | -55.98465 | 4768 ft | 272 kts | 74° |
| 2026-04-28 21:10 | -15.67055 | -55.96563 | 5248 ft | 272 kts | 74° |
| 2026-04-28 21:10 | -15.66572 | -55.94657 | 5837 ft | 274 kts | 74° |
| 2026-04-28 21:10 | -15.66089 | -55.92744 | 5880 ft | 272 kts | 74° |
| 2026-04-28 21:11 | -15.65615 | -55.90866 | 5912 ft | 274 kts | 74° |
| 2026-04-28 21:11 | -15.65234 | -55.88895 | 5898 ft | 277 kts | 89° |
| 2026-04-28 21:11 | -15.65630 | -55.86965 | 6042 ft | 281 kts | 110° |
| 2026-04-28 21:11 | -15.66412 | -55.85090 | 6762 ft | 284 kts | 112° |
| 2026-04-28 21:12 | -15.67236 | -55.83225 | 7659 ft | 285 kts | 113° |
| 2026-04-28 21:12 | -15.68073 | -55.81346 | 8469 ft | 289 kts | 113° |
| 2026-04-28 21:12 | -15.68920 | -55.79436 | 9276 ft | 293 kts | 113° |
| 2026-04-28 21:12 | -15.69777 | -55.77494 | 10068 ft | 298 kts | 113° |
| 2026-04-28 21:13 | -15.70658 | -55.75484 | 10452 ft | 318 kts | 113° |
| 2026-04-28 21:13 | -15.71606 | -55.73315 | 10677 ft | 340 kts | 113° |
| 2026-04-28 21:13 | -15.72595 | -55.71044 | 11223 ft | 349 kts | 113° |
| 2026-04-28 21:13 | -15.73598 | -55.68741 | 11924 ft | 352 kts | 113° |
| 2026-04-28 21:14 | -15.74614 | -55.66405 | 12641 ft | 356 kts | 113° |
| 2026-04-28 21:14 | -15.75636 | -55.64050 | 13322 ft | 360 kts | 114° |
| 2026-04-28 21:14 | -15.76658 | -55.61695 | 13949 ft | 364 kts | 114° |
| 2026-04-28 21:14 | -15.77701 | -55.59288 | 14556 ft | 367 kts | 114° |
| 2026-04-28 21:15 | -15.78753 | -55.56861 | 15203 ft | 370 kts | 114° |
| 2026-04-28 21:15 | -15.79814 | -55.54411 | 15817 ft | 373 kts | 114° |
| 2026-04-28 21:15 | -15.80881 | -55.51945 | 16413 ft | 376 kts | 114° |
| 2026-04-28 21:15 | -15.81955 | -55.49464 | 17061 ft | 378 kts | 114° |
| 2026-04-28 21:16 | -15.83037 | -55.46960 | 17644 ft | 381 kts | 114° |
| 2026-04-28 21:16 | -15.84131 | -55.44431 | 18205 ft | 385 kts | 113° |
| 2026-04-28 21:16 | -15.85234 | -55.41878 | 18673 ft | 389 kts | 113° |
| 2026-04-28 21:16 | -15.86348 | -55.39299 | 19117 ft | 393 kts | 113° |
| 2026-04-28 21:17 | -15.87473 | -55.36693 | 19592 ft | 397 kts | 113° |
| 2026-04-28 21:17 | -15.88593 | -55.34098 | 20065 ft | 400 kts | 113° |
| 2026-04-28 21:17 | -15.89735 | -55.31451 | 20526 ft | 404 kts | 113° |
| 2026-04-28 21:17 | -15.90889 | -55.28775 | 20983 ft | 407 kts | 113° |
| 2026-04-28 21:18 | -15.92058 | -55.26063 | 21356 ft | 413 kts | 113° |
| 2026-04-28 21:18 | -15.93237 | -55.23329 | 21839 ft | 415 kts | 113° |
| 2026-04-28 21:18 | -15.94419 | -55.20585 | 22304 ft | 418 kts | 113° |
| 2026-04-28 21:18 | -15.95612 | -55.17814 | 22738 ft | 421 kts | 113° |
| 2026-04-28 21:19 | -15.96815 | -55.15019 | 23127 ft | 425 kts | 113° |
| 2026-04-28 21:19 | -15.97978 | -55.12181 | 23516 ft | 429 kts | 109° |
| 2026-04-28 21:19 | -15.98981 | -55.09251 | 23869 ft | 431 kts | 107° |
| 2026-04-28 21:19 | -15.99907 | -55.06279 | 24239 ft | 433 kts | 106° |
| 2026-04-28 21:20 | -16.00817 | -55.03283 | 24603 ft | 435 kts | 106° |
| 2026-04-28 21:20 | -16.01736 | -55.00275 | 24956 ft | 438 kts | 106° |
| 2026-04-28 21:20 | -16.02665 | -54.97284 | 25316 ft | 440 kts | 107° |
| 2026-04-28 21:20 | -16.03620 | -54.94250 | 25659 ft | 442 kts | 107° |
| 2026-04-28 21:21 | -16.04590 | -54.91202 | 25995 ft | 445 kts | 107° |
| 2026-04-28 21:21 | -16.05569 | -54.88140 | 26325 ft | 448 kts | 107° |
| 2026-04-28 21:21 | -16.06556 | -54.85060 | 26654 ft | 450 kts | 107° |
| 2026-04-28 21:21 | -16.07549 | -54.81962 | 26986 ft | 453 kts | 107° |
| 2026-04-28 21:22 | -16.08547 | -54.78849 | 27317 ft | 455 kts | 107° |
| 2026-04-28 21:22 | -16.09550 | -54.75713 | 27644 ft | 457 kts | 107° |
| 2026-04-28 21:22 | -16.10556 | -54.72568 | 27943 ft | 460 kts | 107° |
| 2026-04-28 21:22 | -16.11223 | -54.70478 | 28153 ft | 461 kts | 107° |
| 2026-04-28 21:23 | -16.12570 | -54.66261 | 28568 ft | 464 kts | 107° |
| 2026-04-28 21:23 | -16.13589 | -54.63067 | 28866 ft | 466 kts | 107° |
| 2026-04-28 21:23 | -16.14613 | -54.59856 | 29165 ft | 469 kts | 107° |
| 2026-04-28 21:23 | -16.15639 | -54.56634 | 29457 ft | 471 kts | 107° |
| 2026-04-28 21:24 | -16.16672 | -54.53392 | 29740 ft | 473 kts | 107° |
| 2026-04-28 21:24 | -16.17710 | -54.50131 | 30009 ft | 475 kts | 107° |
| 2026-04-28 21:24 | -16.18749 | -54.46863 | 30234 ft | 477 kts | 107° |
| 2026-04-28 21:24 | -16.19794 | -54.43576 | 30450 ft | 479 kts | 107° |
| 2026-04-28 21:25 | -16.20842 | -54.40278 | 30679 ft | 481 kts | 107° |
| 2026-04-28 21:25 | -16.21895 | -54.36965 | 30923 ft | 483 kts | 107° |
| 2026-04-28 21:25 | -16.22972 | -54.33653 | 31127 ft | 485 kts | 109° |
| 2026-04-28 21:25 | -16.24182 | -54.30361 | 31325 ft | 487 kts | 111° |
| 2026-04-28 21:26 | -16.25467 | -54.27094 | 31586 ft | 488 kts | 111° |
| 2026-04-28 21:26 | -16.26762 | -54.23877 | 31887 ft | 488 kts | 111° |
| 2026-04-28 21:26 | -16.28069 | -54.20633 | 32284 ft | 485 kts | 111° |
| 2026-04-28 21:26 | -16.29368 | -54.17380 | 32515 ft | 487 kts | 111° |
| 2026-04-28 21:27 | -16.30661 | -54.14110 | 32716 ft | 490 kts | 111° |
| 2026-04-28 21:27 | -16.31950 | -54.10823 | 33018 ft | 489 kts | 111° |
| 2026-04-28 21:27 | -16.33230 | -54.07542 | 33380 ft | 487 kts | 111° |
| 2026-04-28 21:27 | -16.34504 | -54.04270 | 33739 ft | 486 kts | 111° |
| 2026-04-28 21:28 | -16.35774 | -54.01006 | 34013 ft | 487 kts | 111° |
| 2026-04-28 21:28 | -16.37046 | -53.97735 | 34298 ft | 485 kts | 111° |
| 2026-04-28 21:28 | -16.38307 | -53.94494 | 34721 ft | 481 kts | 111° |
| 2026-04-28 21:28 | -16.39560 | -53.91271 | 35023 ft | 480 kts | 111° |
| 2026-04-28 21:29 | -16.40812 | -53.88051 | 35231 ft | 481 kts | 111° |
| 2026-04-28 21:29 | -16.42055 | -53.84853 | 35429 ft | 482 kts | 111° |
| 2026-04-28 21:29 | -16.43310 | -53.81621 | 35681 ft | 481 kts | 111° |
| 2026-04-28 21:29 | -16.44563 | -53.78393 | 35978 ft | 480 kts | 111° |
| 2026-04-28 21:30 | -16.45814 | -53.75168 | 36247 ft | 479 kts | 111° |
| 2026-04-28 21:30 | -16.47066 | -53.71940 | 36509 ft | 478 kts | 111° |
| 2026-04-28 21:30 | -16.48313 | -53.68722 | 36690 ft | 480 kts | 112° |
| 2026-04-28 21:30 | -16.49563 | -53.65493 | 36874 ft | 481 kts | 112° |
| 2026-04-28 21:31 | -16.50812 | -53.62269 | 37130 ft | 480 kts | 112° |
| 2026-04-28 21:31 | -16.52059 | -53.59048 | 37414 ft | 478 kts | 112° |
| 2026-04-28 21:31 | -16.53298 | -53.55843 | 37664 ft | 477 kts | 112° |
| 2026-04-28 21:31 | -16.54539 | -53.52634 | 37863 ft | 477 kts | 112° |
| 2026-04-28 21:32 | -16.55779 | -53.49423 | 38071 ft | 477 kts | 112° |
| 2026-04-28 21:32 | -16.57015 | -53.46221 | 38321 ft | 476 kts | 112° |
| 2026-04-28 21:32 | -16.58248 | -53.43027 | 38560 ft | 475 kts | 112° |
| 2026-04-28 21:32 | -16.59478 | -53.39834 | 38738 ft | 474 kts | 112° |
| 2026-04-28 21:33 | -16.60709 | -53.36641 | 38869 ft | 475 kts | 112° |
| 2026-04-28 21:33 | -16.61940 | -53.33444 | 38938 ft | 476 kts | 112° |
| 2026-04-28 21:33 | -16.64400 | -53.27052 | 38945 ft | 477 kts | 112° |
| 2026-04-28 21:34 | -16.66861 | -53.20652 | 38937 ft | 474 kts | 112° |
| 2026-04-28 21:34 | -16.69303 | -53.14290 | 38942 ft | 471 kts | 112° |
| 2026-04-28 21:35 | -16.71730 | -53.07950 | 38943 ft | 470 kts | 111° |
| 2026-04-28 21:35 | -16.74104 | -53.01601 | 38943 ft | 469 kts | 111° |
| 2026-04-28 21:36 | -16.76465 | -52.95243 | 38943 ft | 469 kts | 111° |
| 2026-04-28 21:36 | -16.78830 | -52.88885 | 38945 ft | 470 kts | 111° |
| 2026-04-28 21:37 | -16.81200 | -52.82515 | 38944 ft | 471 kts | 111° |
| 2026-04-28 21:37 | -16.83576 | -52.76125 | 38943 ft | 473 kts | 111° |
| 2026-04-28 21:38 | -16.85942 | -52.69757 | 38942 ft | 474 kts | 111° |
| 2026-04-28 21:38 | -16.88324 | -52.63337 | 38948 ft | 475 kts | 111° |
| 2026-04-28 21:39 | -16.90712 | -52.56893 | 38947 ft | 476 kts | 111° |
| 2026-04-28 21:39 | -16.92699 | -52.51527 | 38947 ft | 476 kts | 111° |
| 2026-04-28 21:40 | -16.95088 | -52.45067 | 38956 ft | 476 kts | 111° |
| 2026-04-28 21:40 | -16.97473 | -52.38614 | 38952 ft | 476 kts | 111° |
| 2026-04-28 21:41 | -16.99855 | -52.32159 | 38949 ft | 475 kts | 111° |
| 2026-04-28 21:41 | -17.02227 | -52.25724 | 38954 ft | 474 kts | 111° |
| 2026-04-28 21:42 | -17.04575 | -52.19346 | 38962 ft | 473 kts | 111° |
| 2026-04-28 21:42 | -17.06932 | -52.12938 | 38962 ft | 472 kts | 111° |
| 2026-04-28 21:43 | -17.09285 | -52.06534 | 38972 ft | 471 kts | 111° |
| 2026-04-28 21:43 | -17.11633 | -52.00132 | 38969 ft | 471 kts | 111° |
| 2026-04-28 21:44 | -17.13975 | -51.93741 | 38971 ft | 471 kts | 111° |
| 2026-04-28 21:44 | -17.16306 | -51.87372 | 38975 ft | 471 kts | 111° |
| 2026-04-28 21:45 | -17.18646 | -51.80971 | 38978 ft | 471 kts | 111° |
| 2026-04-28 21:45 | -17.20987 | -51.74561 | 38969 ft | 472 kts | 111° |
| 2026-04-28 21:46 | -17.23337 | -51.68120 | 38982 ft | 473 kts | 111° |
| 2026-04-28 21:46 | -17.25686 | -51.61671 | 38981 ft | 475 kts | 111° |
| 2026-04-28 21:47 | -17.28038 | -51.55208 | 38977 ft | 476 kts | 111° |
| 2026-04-28 21:47 | -17.30392 | -51.48732 | 38986 ft | 477 kts | 111° |
| 2026-04-28 21:48 | -17.32735 | -51.42279 | 38983 ft | 477 kts | 111° |
| 2026-04-28 21:48 | -17.35090 | -51.35786 | 38988 ft | 478 kts | 111° |
| 2026-04-28 21:49 | -17.37450 | -51.29271 | 38985 ft | 478 kts | 111° |
| 2026-04-28 21:49 | -17.39799 | -51.22749 | 38982 ft | 478 kts | 111° |
| 2026-04-28 21:50 | -17.42134 | -51.16238 | 38985 ft | 477 kts | 111° |
| 2026-04-28 21:50 | -17.44462 | -51.09739 | 38985 ft | 476 kts | 111° |
| 2026-04-28 21:51 | -17.46786 | -51.03248 | 38980 ft | 475 kts | 111° |
| 2026-04-28 21:51 | -17.49088 | -50.96812 | 38979 ft | 474 kts | 111° |
| 2026-04-28 21:52 | -17.51400 | -50.90340 | 38981 ft | 474 kts | 111° |
| 2026-04-28 21:52 | -17.53707 | -50.83875 | 38973 ft | 473 kts | 111° |
| 2026-04-28 21:53 | -17.56008 | -50.77420 | 38964 ft | 472 kts | 111° |
| 2026-04-28 21:53 | -17.58306 | -50.70966 | 38967 ft | 472 kts | 111° |
| 2026-04-28 21:54 | -17.60596 | -50.64525 | 38964 ft | 471 kts | 111° |
| 2026-04-28 21:54 | -17.62866 | -50.58133 | 38958 ft | 471 kts | 111° |
| 2026-04-28 21:55 | -17.65150 | -50.51694 | 38950 ft | 471 kts | 111° |
| 2026-04-28 21:55 | -17.67429 | -50.45264 | 38952 ft | 470 kts | 111° |
| 2026-04-28 21:56 | -17.69705 | -50.38832 | 38947 ft | 470 kts | 111° |
| 2026-04-28 21:56 | -17.71982 | -50.32390 | 38941 ft | 470 kts | 111° |
| 2026-04-28 21:57 | -17.74254 | -50.25958 | 38945 ft | 470 kts | 111° |
| 2026-04-28 21:57 | -17.76526 | -50.19514 | 38942 ft | 470 kts | 111° |
| 2026-04-28 21:58 | -17.78779 | -50.13110 | 38936 ft | 470 kts | 110° |
| 2026-04-28 21:58 | -17.80987 | -50.06638 | 38939 ft | 471 kts | 110° |
| 2026-04-28 21:59 | -17.83173 | -50.00166 | 38942 ft | 471 kts | 110° |
| 2026-04-28 22:00 | -17.86470 | -49.90445 | 38949 ft | 471 kts | 110° |
| 2026-04-28 22:00 | -17.88668 | -49.83960 | 38950 ft | 472 kts | 110° |
| 2026-04-28 22:01 | -17.90852 | -49.77505 | 38956 ft | 472 kts | 110° |
| 2026-04-28 22:01 | -17.93051 | -49.70997 | 38954 ft | 473 kts | 110° |
| 2026-04-28 22:02 | -17.95247 | -49.64488 | 38953 ft | 473 kts | 110° |
| 2026-04-28 22:02 | -17.97449 | -49.57956 | 38956 ft | 473 kts | 110° |
| 2026-04-28 22:03 | -17.99645 | -49.51431 | 38960 ft | 473 kts | 110° |
| 2026-04-28 22:03 | -18.01825 | -49.44947 | 38968 ft | 473 kts | 110° |
| 2026-04-28 22:04 | -18.04014 | -49.38425 | 38972 ft | 473 kts | 110° |
| 2026-04-28 22:04 | -18.06203 | -49.31900 | 38967 ft | 474 kts | 110° |
| 2026-04-28 22:05 | -18.08395 | -49.25352 | 38968 ft | 474 kts | 110° |
| 2026-04-28 22:05 | -18.10581 | -49.18818 | 38965 ft | 474 kts | 110° |
| 2026-04-28 22:06 | -18.12768 | -49.12282 | 38967 ft | 474 kts | 110° |
| 2026-04-28 22:06 | -18.14938 | -49.05793 | 38958 ft | 474 kts | 110° |
| 2026-04-28 22:07 | -18.17120 | -48.99257 | 38970 ft | 473 kts | 110° |
| 2026-04-28 22:07 | -18.19299 | -48.92718 | 38965 ft | 473 kts | 110° |
| 2026-04-28 22:08 | -18.21477 | -48.86176 | 38966 ft | 473 kts | 110° |
| 2026-04-28 22:08 | -18.23648 | -48.79639 | 38968 ft | 473 kts | 110° |
| 2026-04-28 22:09 | -18.25817 | -48.73095 | 38971 ft | 474 kts | 110° |
| 2026-04-28 22:09 | -18.27972 | -48.66588 | 38967 ft | 474 kts | 110° |
| 2026-04-28 22:10 | -18.30138 | -48.60039 | 38977 ft | 474 kts | 110° |
| 2026-04-28 22:10 | -18.32303 | -48.53485 | 38979 ft | 474 kts | 110° |
| 2026-04-28 22:11 | -18.34467 | -48.46916 | 38985 ft | 475 kts | 109° |
| 2026-04-28 22:11 | -18.36630 | -48.40342 | 38987 ft | 475 kts | 109° |
| 2026-04-28 22:12 | -18.38795 | -48.33751 | 38986 ft | 475 kts | 109° |
| 2026-04-28 22:12 | -18.40941 | -48.27215 | 38995 ft | 475 kts | 109° |
| 2026-04-28 22:13 | -18.43116 | -48.20589 | 38998 ft | 475 kts | 109° |
| 2026-04-28 22:13 | -18.45262 | -48.14047 | 38999 ft | 475 kts | 109° |
| 2026-04-28 22:14 | -18.47417 | -48.07468 | 39001 ft | 475 kts | 109° |
| 2026-04-28 22:14 | -18.49572 | -48.00882 | 38999 ft | 475 kts | 109° |
| 2026-04-28 22:15 | -18.51722 | -47.94303 | 39005 ft | 474 kts | 109° |
| 2026-04-28 22:15 | -18.53854 | -47.87769 | 39009 ft | 474 kts | 109° |
| 2026-04-28 22:16 | -18.55992 | -47.81207 | 39012 ft | 473 kts | 109° |
| 2026-04-28 22:16 | -18.58125 | -47.74649 | 39011 ft | 473 kts | 109° |
| 2026-04-28 22:17 | -18.60259 | -47.68085 | 39016 ft | 473 kts | 109° |
| 2026-04-28 22:17 | -18.62387 | -47.61529 | 39018 ft | 473 kts | 109° |
| 2026-04-28 22:18 | -18.64517 | -47.54960 | 39025 ft | 472 kts | 109° |
| 2026-04-28 22:18 | -18.66625 | -47.48450 | 39019 ft | 472 kts | 109° |
| 2026-04-28 22:19 | -18.68744 | -47.41893 | 39031 ft | 472 kts | 109° |
| 2026-04-28 22:19 | -18.70865 | -47.35325 | 39029 ft | 472 kts | 109° |
| 2026-04-28 22:20 | -18.72981 | -47.28760 | 39035 ft | 472 kts | 109° |
| 2026-04-28 22:20 | -18.75096 | -47.22193 | 39035 ft | 472 kts | 109° |
| 2026-04-28 22:21 | -18.77210 | -47.15620 | 39038 ft | 472 kts | 109° |
| 2026-04-28 22:21 | -18.79318 | -47.09053 | 39042 ft | 473 kts | 109° |
| 2026-04-28 22:22 | -18.81411 | -47.02524 | 39040 ft | 473 kts | 109° |
| 2026-04-28 22:22 | -18.83517 | -46.95948 | 39058 ft | 472 kts | 109° |
| 2026-04-28 22:23 | -18.85619 | -46.89372 | 39042 ft | 473 kts | 109° |
| 2026-04-28 22:23 | -18.87724 | -46.82781 | 39051 ft | 473 kts | 109° |
| 2026-04-28 22:24 | -18.89822 | -46.76202 | 39052 ft | 473 kts | 109° |
| 2026-04-28 22:24 | -18.91919 | -46.69614 | 39057 ft | 473 kts | 109° |
| 2026-04-28 22:25 | -18.94007 | -46.63064 | 39056 ft | 473 kts | 109° |
| 2026-04-28 22:25 | -18.96227 | -46.56520 | 39051 ft | 473 kts | 110° |
| 2026-04-28 22:26 | -18.98497 | -46.49997 | 39057 ft | 473 kts | 110° |
| 2026-04-28 22:26 | -19.00751 | -46.43464 | 39056 ft | 473 kts | 110° |
| 2026-04-28 22:27 | -19.02989 | -46.36927 | 39063 ft | 473 kts | 110° |
| 2026-04-28 22:27 | -19.05209 | -46.30427 | 39061 ft | 473 kts | 110° |
| 2026-04-28 22:27 | -19.06331 | -46.27138 | 38641 ft | 480 kts | 110° |
| 2026-04-28 22:28 | -19.07464 | -46.23814 | 38072 ft | 479 kts | 110° |
| 2026-04-28 22:28 | -19.08593 | -46.20503 | 37486 ft | 478 kts | 110° |
| 2026-04-28 22:28 | -19.09338 | -46.18314 | 37099 ft | 477 kts | 110° |
| 2026-04-28 22:28 | -19.10462 | -46.15013 | 36525 ft | 476 kts | 110° |
| 2026-04-28 22:29 | -19.11583 | -46.11718 | 35961 ft | 476 kts | 110° |
| 2026-04-28 22:29 | -19.12697 | -46.08442 | 35526 ft | 472 kts | 110° |
| 2026-04-28 22:29 | -19.13804 | -46.05184 | 35085 ft | 469 kts | 110° |
| 2026-04-28 22:29 | -19.14905 | -46.01944 | 34646 ft | 466 kts | 110° |
| 2026-04-28 22:30 | -19.15927 | -45.98702 | 34184 ft | 464 kts | 102° |
| 2026-04-28 22:30 | -19.16167 | -45.95333 | 33814 ft | 456 kts | 85° |
| 2026-04-28 22:30 | -19.15940 | -45.92005 | 33382 ft | 452 kts | 84° |
| 2026-04-28 22:30 | -19.15702 | -45.88693 | 32936 ft | 450 kts | 84° |
| 2026-04-28 22:31 | -19.15471 | -45.85399 | 32504 ft | 447 kts | 84° |
| 2026-04-28 22:31 | -19.15252 | -45.82131 | 32069 ft | 445 kts | 84° |
| 2026-04-28 22:31 | -19.15045 | -45.78911 | 31651 ft | 443 kts | 84° |
| 2026-04-28 22:31 | -19.14843 | -45.75666 | 31224 ft | 441 kts | 84° |
| 2026-04-28 22:32 | -19.14644 | -45.72431 | 30798 ft | 440 kts | 84° |
| 2026-04-28 22:32 | -19.14448 | -45.69207 | 30361 ft | 439 kts | 83° |
| 2026-04-28 22:32 | -19.14252 | -45.65988 | 29898 ft | 438 kts | 83° |
| 2026-04-28 22:32 | -19.14056 | -45.62779 | 29419 ft | 436 kts | 83° |
| 2026-04-28 22:33 | -19.13861 | -45.59591 | 28964 ft | 433 kts | 83° |
| 2026-04-28 22:33 | -19.13666 | -45.56418 | 28512 ft | 431 kts | 83° |
| 2026-04-28 22:33 | -19.13471 | -45.53262 | 28066 ft | 428 kts | 83° |
| 2026-04-28 22:33 | -19.13277 | -45.50134 | 27634 ft | 426 kts | 83° |
| 2026-04-28 22:34 | -19.13084 | -45.47018 | 27206 ft | 423 kts | 83° |
| 2026-04-28 22:34 | -19.12890 | -45.43919 | 26776 ft | 421 kts | 83° |
| 2026-04-28 22:34 | -19.12697 | -45.40833 | 26346 ft | 419 kts | 83° |
| 2026-04-28 22:34 | -19.12505 | -45.37764 | 25918 ft | 418 kts | 83° |
| 2026-04-28 22:35 | -19.12312 | -45.34701 | 25473 ft | 417 kts | 83° |
| 2026-04-28 22:35 | -19.12120 | -45.31651 | 25049 ft | 415 kts | 83° |
| 2026-04-28 22:35 | -19.11927 | -45.28600 | 24603 ft | 415 kts | 83° |
| 2026-04-28 22:35 | -19.11734 | -45.25567 | 24177 ft | 414 kts | 83° |
| 2026-04-28 22:36 | -19.11542 | -45.22533 | 23746 ft | 413 kts | 83° |
| 2026-04-28 22:36 | -19.11349 | -45.19501 | 23260 ft | 412 kts | 83° |
| 2026-04-28 22:36 | -19.11159 | -45.16525 | 22808 ft | 409 kts | 83° |
| 2026-04-28 22:36 | -19.10967 | -45.13527 | 22375 ft | 406 kts | 83° |
| 2026-04-28 22:37 | -19.10777 | -45.10560 | 21953 ft | 403 kts | 83° |
| 2026-04-28 22:37 | -19.10588 | -45.07612 | 21535 ft | 400 kts | 83° |
| 2026-04-28 22:37 | -19.10400 | -45.04687 | 21123 ft | 397 kts | 83° |
| 2026-04-28 22:37 | -19.10212 | -45.01781 | 20711 ft | 395 kts | 83° |
| 2026-04-28 22:38 | -19.10025 | -44.98894 | 20290 ft | 392 kts | 83° |
| 2026-04-28 22:38 | -19.09839 | -44.96029 | 19896 ft | 389 kts | 83° |
| 2026-04-28 22:38 | -19.09653 | -44.93177 | 19491 ft | 387 kts | 83° |
| 2026-04-28 22:38 | -19.09468 | -44.90347 | 19088 ft | 385 kts | 83° |
| 2026-04-28 22:39 | -19.09286 | -44.87568 | 18668 ft | 381 kts | 83° |
| 2026-04-28 22:39 | -19.09105 | -44.84798 | 18264 ft | 374 kts | 83° |
| 2026-04-28 22:39 | -19.08927 | -44.82075 | 17821 ft | 367 kts | 83° |
| 2026-04-28 22:39 | -19.08751 | -44.79407 | 17418 ft | 360 kts | 83° |
| 2026-04-28 22:40 | -19.08579 | -44.76796 | 17030 ft | 353 kts | 84° |
| 2026-04-28 22:40 | -19.08409 | -44.74231 | 16647 ft | 347 kts | 84° |
| 2026-04-28 22:40 | -19.08240 | -44.71692 | 16283 ft | 346 kts | 84° |
| 2026-04-28 22:40 | -19.08303 | -44.69149 | 15884 ft | 348 kts | 102° |
| 2026-04-28 22:41 | -19.09249 | -44.66807 | 15584 ft | 348 kts | 122° |
| 2026-04-28 22:41 | -19.10677 | -44.64743 | 15242 ft | 347 kts | 126° |
| 2026-04-28 22:41 | -19.12165 | -44.62728 | 14875 ft | 347 kts | 127° |
| 2026-04-28 22:41 | -19.13656 | -44.60720 | 14479 ft | 348 kts | 127° |
| 2026-04-28 22:42 | -19.15144 | -44.58695 | 14074 ft | 348 kts | 126° |
| 2026-04-28 22:42 | -19.16619 | -44.56666 | 13685 ft | 347 kts | 126° |
| 2026-04-28 22:42 | -19.18082 | -44.54641 | 13314 ft | 345 kts | 126° |
| 2026-04-28 22:42 | -19.19521 | -44.52640 | 13107 ft | 338 kts | 126° |
| 2026-04-28 22:43 | -19.20930 | -44.50678 | 12881 ft | 332 kts | 126° |
| 2026-04-28 22:43 | -19.22296 | -44.48775 | 12680 ft | 325 kts | 126° |
| 2026-04-28 22:43 | -19.23652 | -44.46887 | 12498 ft | 319 kts | 126° |
| 2026-04-28 22:43 | -19.24978 | -44.45037 | 12316 ft | 312 kts | 126° |
| 2026-04-28 22:44 | -19.26282 | -44.43219 | 12148 ft | 306 kts | 126° |
| 2026-04-28 22:44 | -19.27560 | -44.41438 | 11969 ft | 301 kts | 126° |
| 2026-04-28 22:44 | -19.28817 | -44.39684 | 11766 ft | 297 kts | 126° |
| 2026-04-28 22:44 | -19.30062 | -44.37946 | 11503 ft | 295 kts | 126° |
| 2026-04-28 22:45 | -19.31306 | -44.36210 | 11145 ft | 296 kts | 126° |
| 2026-04-28 22:45 | -19.32422 | -44.34400 | 10773 ft | 292 kts | 112° |
| 2026-04-28 22:45 | -19.33077 | -44.32381 | 10447 ft | 288 kts | 107° |
| 2026-04-28 22:45 | -19.33696 | -44.30373 | 10102 ft | 285 kts | 108° |
| 2026-04-28 22:46 | -19.34330 | -44.28392 | 9739 ft | 283 kts | 109° |
| 2026-04-28 22:46 | -19.34959 | -44.26461 | 9363 ft | 280 kts | 109° |
| 2026-04-28 22:46 | -19.35592 | -44.24526 | 8984 ft | 277 kts | 109° |
| 2026-04-28 22:46 | -19.36221 | -44.22612 | 8613 ft | 274 kts | 109° |
| 2026-04-28 22:47 | -19.37147 | -44.20873 | 8218 ft | 273 kts | 132° |
| 2026-04-28 22:47 | -19.38562 | -44.19550 | 7887 ft | 270 kts | 139° |
| 2026-04-28 22:47 | -19.39999 | -44.18299 | 7636 ft | 264 kts | 139° |
| 2026-04-28 22:47 | -19.41398 | -44.17070 | 7429 ft | 257 kts | 139° |
| 2026-04-28 22:48 | -19.42745 | -44.15880 | 7272 ft | 248 kts | 139° |
| 2026-04-28 22:48 | -19.44041 | -44.14720 | 7130 ft | 242 kts | 137° |
| 2026-04-28 22:48 | -19.45304 | -44.13562 | 6985 ft | 238 kts | 138° |
| 2026-04-28 22:48 | -19.46605 | -44.12424 | 6632 ft | 243 kts | 139° |
| 2026-04-28 22:49 | -19.47895 | -44.11266 | 6300 ft | 241 kts | 137° |
| 2026-04-28 22:49 | -19.49150 | -44.10106 | 5985 ft | 237 kts | 136° |
| 2026-04-28 22:49 | -19.50360 | -44.08978 | 5682 ft | 232 kts | 136° |
| 2026-04-28 22:49 | -19.51555 | -44.07865 | 5386 ft | 225 kts | 136° |
| 2026-04-28 22:50 | -19.52691 | -44.06809 | 5097 ft | 209 kts | 135° |
| 2026-04-28 22:50 | -19.53745 | -44.05829 | 4906 ft | 195 kts | 135° |
| 2026-04-28 22:50 | -19.54742 | -44.04900 | 4664 ft | 185 kts | 135° |
| 2026-04-28 22:50 | -19.55666 | -44.04041 | 4462 ft | 170 kts | 135° |
| 2026-04-28 22:51 | -19.56515 | -44.03252 | 4273 ft | 152 kts | 134° |
| 2026-04-28 22:51 | -19.57285 | -44.02533 | 4053 ft | 144 kts | 135° |
| 2026-04-28 22:51 | -19.58042 | -44.01828 | 3872 ft | 147 kts | 135° |
| 2026-04-28 22:51 | -19.58813 | -44.01110 | 3698 ft | 148 kts | 135° |
| 2026-04-28 22:52 | -19.59584 | -44.00392 | 3497 ft | 147 kts | 136° |
| 2026-04-28 22:52 | -19.60344 | -43.99686 | 3306 ft | 148 kts | 137° |
| 2026-04-28 22:52 | -19.61113 | -43.98989 | 3234 ft | 143 kts | 138° |
| 2026-04-28 22:52 | -19.61869 | -43.98289 | 3038 ft | 145 kts | 132° |
| 2026-04-28 22:53 | -19.62619 | -43.97561 | 2811 ft | 142 kts | 137° |
| 2026-04-28 22:53 | -19.63031 | -43.97183 | 2811 ft | 6 kts | 140° |